Time;durP1;ratioP1;P1;durP2;ratioP2;P2;SDS_P1;SDS_P2;PMS_P1;PMS_P2;Temp;Humidity;BMP_temperature;BMP_pressure;BME280_temperature;BME280_humidity;BME280_pressure;Samples;Min_cycle;Max_cycle;Signal;HPM_P1;HPM_P2
2022/07/12 00:00:55;;;;;;;;;;;;;;;29.01;42.42;98971.13;2089119;28;19928;-50
2022/07/12 00:01:56;;;;;;;;;;;;;;;29.01;42.54;98971.13;2089800;28;19996;-52
2022/07/12 00:02:57;;;;;;;;;;;;;;;29.02;42.60;98978.22;2090576;28;20652;-50
2022/07/12 00:03:58;;;;;;;;;;;;;;;29.02;42.50;98974.66;2088221;28;19932;-52
2022/07/12 00:04:59;;;;;;;;;;;;;;;29.01;42.44;98978.50;2088859;28;20610;-53
2022/07/12 00:06:00;;;;;;;;;;;;;;;29.02;42.31;98980.13;2091002;28;19939;-54
2022/07/12 00:07:02;;;;;;;;;;;;;;;28.99;42.67;98976.00;2089288;28;19928;-47
2022/07/12 00:08:03;;;;;;;;;;;;;;;29.01;42.51;98975.75;2091476;28;19935;-52
2022/07/12 00:09:04;;;;;;;;;;;;;;;29.00;42.47;98982.28;2089854;28;19928;-50
2022/07/12 00:10:05;;;;;;;;;;;;;;;28.98;42.60;98977.09;2090882;28;20351;-53
2022/07/12 00:11:06;;;;;;;;;;;;;;;29.00;42.72;98974.91;2090204;28;19931;-51
2022/07/12 00:12:07;;;;;;;;;;;;;;;29.00;42.25;98977.63;2087030;28;19928;-54
2022/07/12 00:13:10;;;;;;;;;;;;;;;28.99;42.44;98978.75;2088807;28;19935;-49
2022/07/12 00:14:11;;;;;;;;;;;;;;;29.00;42.52;98980.38;2090771;28;19932;-52
2022/07/12 00:15:15;;;;;;;;;;;;;;;29.00;42.61;98977.63;2087824;28;19924;-54
2022/07/12 00:16:16;;;;;;;;;;;;;;;28.97;42.63;98972.72;2091173;28;20389;-48
2022/07/12 00:17:17;;;;;;;;;;;;;;;28.97;42.84;98967.25;2090627;28;19939;-51
2022/07/12 00:18:19;;;;;;;;;;;;;;;28.96;42.40;98973.81;2093059;28;19924;-51
2022/07/12 00:19:20;;;;;;;;;;;;;;;28.99;42.60;98972.47;2089040;28;19955;-55
2022/07/12 00:20:21;;;;;;;;;;;;;;;29.00;42.65;98976.81;2088939;28;19981;-56
2022/07/12 00:21:23;;;;;;;;;;;;;;;28.98;42.40;98976.28;2088848;28;19936;-53
2022/07/12 00:22:24;;;;;;;;;;;;;;;28.96;42.68;98973.81;2089336;28;19935;-54
2022/07/12 00:23:25;;;;;;;;;;;;;;;28.97;42.46;98978.16;2084456;28;20349;-55
2022/07/12 00:24:26;;;;;;;;;;;;;;;28.97;42.44;98975.44;2084284;28;20767;-53
2022/07/12 00:25:28;;;;;;;;;;;;;;;28.94;42.58;98978.69;2082617;28;20027;-60
2022/07/12 00:26:28;;;;;;;;;;;;;;;28.94;42.75;98976.78;2088231;28;19929;-58
2022/07/12 00:27:30;;;;;;;;;;;;;;;28.95;42.50;98978.44;2085694;28;20607;-55
2022/07/12 00:28:31;;;;;;;;;;;;;;;28.97;42.58;98983.63;2087357;28;19931;-58
2022/07/12 00:29:32;;;;;;;;;;;;;;;28.98;42.41;98981.75;2083821;28;20298;-53
2022/07/12 00:30:34;;;;;;;;;;;;;;;28.98;42.60;98977.09;2088002;28;19928;-53
2022/07/12 00:31:36;;;;;;;;;;;;;;;28.99;42.67;98977.91;2087163;28;19977;-56
2022/07/12 00:32:36;;;;;;;;;;;;;;;28.99;42.62;98980.66;2089246;28;19924;-55
2022/07/12 00:33:38;;;;;;;;;;;;;;;28.99;42.72;98984.19;2086238;28;19994;-55
2022/07/12 00:34:39;;;;;;;;;;;;;;;28.98;42.60;98984.47;2090211;28;19936;-54
2022/07/12 00:35:40;;;;;;;;;;;;;;;28.96;42.70;98979.28;2089289;28;20389;-58
2022/07/12 00:36:41;;;;;;;;;;;;;;;28.93;42.78;98979.78;2088053;28;20034;-51
2022/07/12 00:37:42;;;;;;;;;;;;;;;28.96;42.67;98984.72;2087373;28;20005;-57
2022/07/12 00:38:43;;;;;;;;;;;;;;;28.97;42.40;98983.63;2088524;28;20318;-56
2022/07/12 00:39:45;;;;;;;;;;;;;;;28.97;42.55;98980.91;2091941;28;19929;-57
2022/07/12 00:40:45;;;;;;;;;;;;;;;28.96;42.62;98973.81;2090010;28;19928;-56
2022/07/12 00:41:48;;;;;;;;;;;;;;;28.96;42.63;98977.34;2091366;28;19928;-54
2022/07/12 00:42:49;;;;;;;;;;;;;;;28.96;42.74;98976.53;2088976;28;19923;-50
2022/07/12 00:43:52;;;;;;;;;;;;;;;28.96;42.67;98979.28;2084475;28;19939;-49
2022/07/12 00:44:52;;;;;;;;;;;;;;;28.96;42.69;98974.63;2091767;28;19936;-53
2022/07/12 00:45:55;;;;;;;;;;;;;;;28.98;42.69;98984.47;2090934;28;19929;-53
2022/07/12 00:46:56;;;;;;;;;;;;;;;28.97;42.56;98978.16;2089032;28;19924;-51
2022/07/12 00:47:58;;;;;;;;;;;;;;;28.94;42.69;98970.50;2089996;28;19934;-51
2022/07/12 00:48:59;;;;;;;;;;;;;;;28.93;42.65;98969.69;2089809;28;19970;-53
2022/07/12 00:50:01;;;;;;;;;;;;;;;28.95;42.62;98973.00;2089352;28;19929;-51
2022/07/12 00:51:01;;;;;;;;;;;;;;;28.93;42.51;98977.06;2089551;28;19951;-51
2022/07/12 00:52:03;;;;;;;;;;;;;;;28.92;42.78;98980.91;2088654;28;19934;-52
2022/07/12 00:53:04;;;;;;;;;;;;;;;28.90;42.57;98972.94;2089106;28;19928;-53
2022/07/12 00:54:06;;;;;;;;;;;;;;;28.91;42.83;98976.50;2091231;28;20015;-50
2022/07/12 00:55:07;;;;;;;;;;;;;;;28.93;42.65;98977.88;2089893;28;19929;-52
2022/07/12 00:56:09;;;;;;;;;;;;;;;28.94;42.60;98976.78;2090713;28;19982;-50
2022/07/12 00:57:09;;;;;;;;;;;;;;;28.92;42.67;98972.72;2090088;28;21372;-52
2022/07/12 00:58:11;;;;;;;;;;;;;;;28.91;42.74;98976.50;2088727;28;21356;-52
2022/07/12 00:59:11;;;;;;;;;;;;;;;28.89;42.75;98974.06;2089910;28;20012;-52
2022/07/12 01:00:15;;;;;;;;;;;;;;;28.92;42.76;98978.16;2090625;28;19928;-51
2022/07/12 01:01:17;;;;;;;;;;;;;;;28.89;42.85;98979.50;2090660;28;19932;-52
2022/07/12 01:02:18;;;;;;;;;;;;;;;28.90;42.94;98981.16;2091561;28;20330;-52
2022/07/12 01:03:19;;;;;;;;;;;;;;;28.89;42.77;98974.06;2089893;28;19948;-51
2022/07/12 01:04:20;;;;;;;;;;;;;;;28.88;42.87;98980.56;2084597;28;19932;-52
2022/07/12 01:05:21;;;;;;;;;;;;;;;28.92;42.78;98980.91;2089711;28;20532;-52
2022/07/12 01:06:23;;;;;;;;;;;;;;;28.94;42.76;98981.44;2090186;28;19928;-52
2022/07/12 01:07:25;;;;;;;;;;;;;;;28.90;42.68;98980.31;2089714;28;19939;-53
2022/07/12 01:08:27;;;;;;;;;;;;;;;28.90;42.95;98977.59;2089857;28;20425;-56
2022/07/12 01:09:28;;;;;;;;;;;;;;;28.89;42.88;98976.78;2087795;28;20713;-50
2022/07/12 01:10:30;;;;;;;;;;;;;;;28.90;42.78;98977.59;2088397;28;20011;-51
2022/07/12 01:11:31;;;;;;;;;;;;;;;28.90;42.92;98977.59;2089943;28;19929;-54
2022/07/12 01:12:33;;;;;;;;;;;;;;;28.88;42.89;98975.13;2089681;28;19928;-53
2022/07/12 01:13:34;;;;;;;;;;;;;;;28.91;42.80;98976.50;2086310;28;19939;-52
2022/07/12 01:14:36;;;;;;;;;;;;;;;28.90;42.70;98972.13;2089173;28;19936;-51
2022/07/12 01:15:37;;;;;;;;;;;;;;;28.91;42.69;98976.50;2089011;28;19931;-54
2022/07/12 01:16:40;;;;;;;;;;;;;;;28.91;42.72;98977.31;2091085;28;19937;-51
2022/07/12 01:17:41;;;;;;;;;;;;;;;28.88;42.80;98966.94;2089411;28;19940;-52
2022/07/12 01:18:44;;;;;;;;;;;;;;;28.89;42.87;98975.94;2090741;28;20035;-49
2022/07/12 01:19:44;;;;;;;;;;;;;;;28.90;42.87;98967.50;2091913;28;19929;-49
2022/07/12 01:20:46;;;;;;;;;;;;;;;28.91;42.83;98965.56;2089899;28;19997;-49
2022/07/12 01:21:48;;;;;;;;;;;;;;;28.92;42.73;98962.59;2091830;28;19928;-52
2022/07/12 01:22:53;;;;;;;;;;;;;;;28.92;42.85;98964.50;2092130;28;19951;-50
2022/07/12 01:23:55;;;;;;;;;;;;;;;28.91;42.57;98968.31;2090940;28;19933;-53
2022/07/12 01:24:55;;;;;;;;;;;;;;;28.90;42.82;98969.41;2091652;28;19932;-52
2022/07/12 01:25:57;;;;;;;;;;;;;;;28.89;42.80;98968.59;2089434;28;19935;-54
2022/07/12 01:26:58;;;;;;;;;;;;;;;28.90;42.62;98970.22;2090153;28;20600;-53
2022/07/12 01:28:00;;;;;;;;;;;;;;;28.92;42.80;98967.25;2088374;28;19929;-50
2022/07/12 01:29:00;;;;;;;;;;;;;;;28.92;42.64;98967.25;2089363;28;19928;-52
2022/07/12 01:30:03;;;;;;;;;;;;;;;28.92;42.48;98965.31;2086666;28;19928;-53
2022/07/12 01:31:04;;;;;;;;;;;;;;;28.92;42.73;98961.78;2088241;28;20448;-52
2022/07/12 01:33:22;;;;;;;;;;;;;;;28.91;42.69;98965.56;2090387;28;19971;-55
2022/07/12 01:34:22;;;;;;;;;;;;;;;28.91;42.71;98965.56;2092959;28;19924;-53
2022/07/12 01:35:25;;;;;;;;;;;;;;;28.91;42.72;98960.13;2092170;28;19935;-53
2022/07/12 01:36:26;;;;;;;;;;;;;;;28.90;42.78;98967.50;2090947;28;20263;-51
2022/07/12 01:37:29;;;;;;;;;;;;;;;28.89;42.84;98974.06;2091194;28;19978;-54
2022/07/12 01:38:31;;;;;;;;;;;;;;;28.89;42.81;98967.75;2090219;28;20686;-50
2022/07/12 01:39:33;;;;;;;;;;;;;;;28.91;42.57;98971.03;2087972;28;20170;-50
2022/07/12 01:40:35;;;;;;;;;;;;;;;28.89;42.82;98968.59;2093438;28;19928;-52
2022/07/12 01:41:36;;;;;;;;;;;;;;;28.90;42.88;98969.41;2090629;28;19996;-51
2022/07/12 01:42:37;;;;;;;;;;;;;;;28.87;42.88;98972.66;2092197;28;20005;-52
2022/07/12 01:43:38;;;;;;;;;;;;;;;28.87;42.98;98972.66;2088927;28;19928;-53
2022/07/12 01:44:40;;;;;;;;;;;;;;;28.87;42.72;98976.22;2085339;28;19936;-52
2022/07/12 01:45:41;;;;;;;;;;;;;;;28.89;42.71;98979.50;2090201;28;24156;-53
2022/07/12 01:46:43;;;;;;;;;;;;;;;28.87;42.89;98980.84;2090989;28;19989;-57
2022/07/12 01:47:43;;;;;;;;;;;;;;;28.88;42.67;98975.13;2088297;28;19929;-56
2022/07/12 01:48:46;;;;;;;;;;;;;;;28.88;42.64;98975.13;2086699;28;20003;-48
2022/07/12 01:49:46;;;;;;;;;;;;;;;28.89;42.68;98978.66;2087238;28;19968;-51
2022/07/12 01:50:48;;;;;;;;;;;;;;;28.90;42.73;98977.59;2092197;28;19980;-49
2022/07/12 01:51:49;;;;;;;;;;;;;;;28.90;42.60;98972.13;2089777;28;19940;-51
2022/07/12 01:52:51;;;;;;;;;;;;;;;28.90;42.74;98966.69;2091021;28;19964;-48
2022/07/12 01:53:53;;;;;;;;;;;;;;;28.90;42.72;98970.22;2089704;28;19935;-50
2022/07/12 01:54:55;;;;;;;;;;;;;;;28.87;42.51;98959.84;2089938;28;20432;-49
2022/07/12 01:55:55;;;;;;;;;;;;;;;28.87;42.81;98961.75;2089451;28;19933;-50
2022/07/12 01:56:57;;;;;;;;;;;;;;;28.87;42.68;98964.47;2091062;28;20491;-53
2022/07/12 01:57:58;;;;;;;;;;;;;;;28.88;42.66;98961.47;2083836;28;21039;-52
2022/07/12 01:59:00;;;;;;;;;;;;;;;28.86;42.75;98960.94;2088641;28;19938;-50
2022/07/12 02:00:02;;;;;;;;;;;;;;;28.87;42.94;98969.94;2087989;28;20027;-49
2022/07/12 02:01:05;;;;;;;;;;;;;;;28.86;42.93;98960.94;2090073;28;19940;-50
2022/07/12 02:02:05;;;;;;;;;;;;;;;28.88;42.74;98966.13;2091007;28;19972;-51
2022/07/12 02:03:07;;;;;;;;;;;;;;;28.86;42.94;98960.94;2090157;28;19932;-51
2022/07/12 02:04:07;;;;;;;;;;;;;;;28.84;42.91;98960.38;2089664;28;19932;-50
2022/07/12 02:05:09;;;;;;;;;;;;;;;28.86;42.67;98957.34;2090063;28;19932;-50
2022/07/12 02:06:09;;;;;;;;;;;;;;;28.84;42.54;98965.81;2088482;28;19932;-52
2022/07/12 02:07:11;;;;;;;;;;;;;;;28.84;42.91;98962.28;2090117;28;20490;-52
2022/07/12 02:08:12;;;;;;;;;;;;;;;28.83;42.66;98963.34;2090871;28;20001;-50
2022/07/12 02:09:15;;;;;;;;;;;;;;;28.86;42.60;98971.00;2089988;28;19970;-51
2022/07/12 02:10:15;;;;;;;;;;;;;;;28.83;42.76;98963.34;2091476;28;19928;-51
2022/07/12 02:11:17;;;;;;;;;;;;;;;28.82;42.65;98967.16;2089423;28;19939;-49
2022/07/12 02:12:17;;;;;;;;;;;;;;;28.81;42.67;98963.63;2089595;28;21088;-51
2022/07/12 02:13:19;;;;;;;;;;;;;;;28.80;42.87;98967.41;2084602;28;19929;-53
2022/07/12 02:14:20;;;;;;;;;;;;;;;28.82;42.75;98970.72;2090328;28;19932;-51
2022/07/12 02:15:22;;;;;;;;;;;;;;;28.81;42.84;98971.81;2089435;28;19943;-50
2022/07/12 02:16:22;;;;;;;;;;;;;;;28.82;43.00;98962.53;2091023;28;19932;-52
2022/07/12 02:17:24;;;;;;;;;;;;;;;28.82;42.79;98969.91;2089962;28;20582;-51
2022/07/12 02:18:25;;;;;;;;;;;;;;;28.81;42.89;98969.09;2091842;28;19929;-50
2022/07/12 02:19:26;;;;;;;;;;;;;;;28.81;42.87;98962.81;2088691;28;20730;-52
2022/07/12 02:20:27;;;;;;;;;;;;;;;28.81;42.73;98966.34;2091508;28;19932;-50
2022/07/12 02:21:28;;;;;;;;;;;;;;;28.80;42.94;98970.16;2090241;28;20322;-50
2022/07/12 02:22:29;;;;;;;;;;;;;;;28.80;43.05;98970.16;2087476;28;20302;-52
2022/07/12 02:23:30;;;;;;;;;;;;;;;28.79;43.00;98968.50;2090026;28;19932;-51
2022/07/12 02:24:32;;;;;;;;;;;;;;;28.79;43.09;98967.69;2091132;28;19935;-48
2022/07/12 02:25:34;;;;;;;;;;;;;;;28.79;42.69;98964.97;2089560;28;19928;-50
2022/07/12 02:26:35;;;;;;;;;;;;;;;28.80;42.78;98966.59;2090994;28;19932;-48
2022/07/12 02:27:38;;;;;;;;;;;;;;;28.81;42.92;98973.72;2088048;28;19929;-50
2022/07/12 02:28:39;;;;;;;;;;;;;;;28.82;42.81;98970.72;2089180;28;19932;-49
2022/07/12 02:29:42;;;;;;;;;;;;;;;28.82;42.90;98967.16;2086224;28;20601;-49
2022/07/12 02:30:42;;;;;;;;;;;;;;;28.79;42.73;98967.69;2091020;28;20039;-52
2022/07/12 02:31:44;;;;;;;;;;;;;;;28.79;43.00;98971.25;2089269;28;20540;-50
2022/07/12 02:32:45;;;;;;;;;;;;;;;28.78;42.92;98969.59;2090941;28;19936;-49
2022/07/12 02:33:47;;;;;;;;;;;;;;;28.81;42.85;98971.00;2089781;28;19933;-48
2022/07/12 02:34:48;;;;;;;;;;;;;;;28.80;42.93;98974.78;2088740;28;20570;-49
2022/07/12 02:35:49;;;;;;;;;;;;;;;28.80;42.80;98980.25;2085846;28;19997;-51
2022/07/12 02:36:51;;;;;;;;;;;;;;;28.80;42.92;98988.44;2088905;28;20133;-49
2022/07/12 02:37:51;;;;;;;;;;;;;;;28.82;42.95;98986.28;2086526;28;20036;-49
2022/07/12 02:38:53;;;;;;;;;;;;;;;28.82;42.83;98978.91;2090400;28;19928;-49
2022/07/12 02:40:53;;;;;;;;;;;;;;;28.82;42.82;98986.28;2089689;28;19928;-49
2022/07/12 02:41:16;;;;;;;;;;;;;;;28.82;42.93;98980.81;2089855;28;19928;-50
2022/07/12 02:42:17;;;;;;;;;;;;;;;28.83;42.76;98979.72;2090319;28;19932;-50
2022/07/12 02:43:18;;;;;;;;;;;;;;;28.83;42.90;98979.72;2085673;28;19932;-52
2022/07/12 02:44:19;;;;;;;;;;;;;;;28.84;43.07;98981.38;2088738;28;19932;-50
2022/07/12 02:45:21;;;;;;;;;;;;;;;28.84;42.87;98978.66;2082872;28;20379;-59
2022/07/12 02:46:22;;;;;;;;;;;;;;;28.84;42.80;98971.28;2084114;28;19928;-53
2022/07/12 02:47:23;;;;;;;;;;;;;;;28.84;42.57;98971.28;2090216;28;20014;-51
2022/07/12 02:48:24;;;;;;;;;;;;;;;28.85;42.82;98972.09;2090117;28;19924;-54
2022/07/12 02:49:25;;;;;;;;;;;;;;;28.84;42.64;98982.22;2088385;28;19924;-52
2022/07/12 02:50:26;;;;;;;;;;;;;;;28.84;42.83;98975.94;2090244;28;19928;-56
2022/07/12 02:51:28;;;;;;;;;;;;;;;28.84;42.78;98982.22;2085752;28;19928;-58
2022/07/12 02:52:29;;;;;;;;;;;;;;;28.84;42.67;98979.47;2089441;28;19935;-53
2022/07/12 02:53:32;;;;;;;;;;;;;;;28.84;42.75;98986.84;2089612;28;20098;-55
2022/07/12 02:54:33;;;;;;;;;;;;;;;28.83;42.81;98979.72;2090969;28;20001;-49
2022/07/12 02:55:35;;;;;;;;;;;;;;;28.84;42.85;98981.38;2089965;28;19931;-51
2022/07/12 02:56:37;;;;;;;;;;;;;;;28.82;42.70;98984.38;2090203;28;19940;-56
2022/07/12 02:57:37;;;;;;;;;;;;;;;28.82;42.84;98983.53;2089882;28;19935;-56
2022/07/12 02:58:39;;;;;;;;;;;;;;;28.82;42.77;98986.28;2087263;28;19970;-54
2022/07/12 02:59:40;;;;;;;;;;;;;;;28.83;42.74;98991.47;2089818;28;19931;-57
2022/07/12 03:00:43;;;;;;;;;;;;;;;28.82;42.92;98986.28;2089293;28;19974;-54
2022/07/12 03:01:44;;;;;;;;;;;;;;;28.82;42.84;98991.75;2086776;28;19932;-55
2022/07/12 03:02:45;;;;;;;;;;;;;;;28.83;42.53;98990.66;2089150;28;20383;-51
2022/07/12 03:03:46;;;;;;;;;;;;;;;28.83;42.78;98993.38;2090069;28;19925;-52
2022/07/12 03:04:47;;;;;;;;;;;;;;;28.82;42.85;98989.81;2089453;28;19928;-50
2022/07/12 03:05:49;;;;;;;;;;;;;;;28.82;42.77;98983.53;2089905;28;19928;-52
2022/07/12 03:06:49;;;;;;;;;;;;;;;28.81;42.80;98992.84;2088667;28;19928;-57
2022/07/12 03:07:51;;;;;;;;;;;;;;;28.82;42.85;98991.75;2090781;28;20229;-54
2022/07/12 03:08:51;;;;;;;;;;;;;;;28.83;42.57;98990.66;2089773;28;20464;-53
2022/07/12 03:09:53;;;;;;;;;;;;;;;28.80;42.85;98991.97;2089760;28;20122;-52
2022/07/12 03:10:55;;;;;;;;;;;;;;;28.80;43.04;98991.16;2088019;28;20144;-57
2022/07/12 03:11:57;;;;;;;;;;;;;;;28.82;42.85;98989.00;2086652;28;20828;-54
2022/07/12 03:12:57;;;;;;;;;;;;;;;28.80;42.87;98988.44;2090960;28;21253;-51
2022/07/12 03:13:59;;;;;;;;;;;;;;;28.81;42.77;98992.84;2086414;28;19971;-55
2022/07/12 03:14:59;;;;;;;;;;;;;;;28.81;42.91;98987.38;2089647;28;19940;-49
2022/07/12 03:16:01;;;;;;;;;;;;;;;28.81;42.94;98992.84;2088441;28;20121;-49
2022/07/12 03:17:01;;;;;;;;;;;;;;;28.81;42.79;98995.56;2085534;28;20394;-52
2022/07/12 03:18:03;;;;;;;;;;;;;;;28.80;42.84;98996.63;2088706;28;19931;-51
2022/07/12 03:19:04;;;;;;;;;;;;;;;28.79;42.80;98989.53;2089975;28;20341;-53
2022/07/12 03:20:08;;;;;;;;;;;;;;;28.80;42.95;99002.09;2089026;28;19932;-55
2022/07/12 03:21:09;;;;;;;;;;;;;;;28.81;42.98;98992.84;2083793;28;20466;-52
2022/07/12 03:22:11;;;;;;;;;;;;;;;28.80;42.65;98993.91;2090885;28;19964;-53
2022/07/12 03:23:11;;;;;;;;;;;;;;;28.81;42.85;98998.28;2088509;28;19947;-55
2022/07/12 03:24:13;;;;;;;;;;;;;;;28.79;42.70;98998.53;2090429;28;20647;-54
2022/07/12 03:25:13;;;;;;;;;;;;;;;28.79;42.90;98995.00;2087790;28;20698;-49
2022/07/12 03:26:16;;;;;;;;;;;;;;;28.79;42.71;98995.00;2090457;28;20027;-50
2022/07/12 03:27:17;;;;;;;;;;;;;;;28.79;42.85;98997.72;2087827;28;20676;-51
2022/07/12 03:28:18;;;;;;;;;;;;;;;28.78;42.87;98999.63;2087621;28;20063;-51
2022/07/12 03:29:20;;;;;;;;;;;;;;;28.78;42.78;98999.63;2087622;28;19940;-51
2022/07/12 03:30:21;;;;;;;;;;;;;;;28.79;42.86;98995.81;2088427;28;19931;-53
2022/07/12 03:31:22;;;;;;;;;;;;;;;28.78;42.89;98998.78;2088637;28;19928;-52
2022/07/12 03:32:24;;;;;;;;;;;;;;;28.77;42.91;98997.16;2089428;28;19939;-53
2022/07/12 03:33:24;;;;;;;;;;;;;;;28.77;42.97;98997.16;2090013;28;19932;-51
2022/07/12 03:34:26;;;;;;;;;;;;;;;28.76;42.90;98995.53;2085393;28;19974;-50
2022/07/12 03:35:26;;;;;;;;;;;;;;;28.73;42.98;98994.94;2090923;28;19928;-50
2022/07/12 03:36:28;;;;;;;;;;;;;;;28.75;42.92;99002.88;2089565;28;20534;-50
2022/07/12 03:37:38;;;;;;;;;;;;;;;28.74;42.89;98999.31;2089934;28;19928;-52
2022/07/12 03:38:39;;;;;;;;;;;;;;;28.74;42.84;98998.50;2091301;28;19928;-53
2022/07/12 03:39:40;;;;;;;;;;;;;;;28.75;43.00;99005.59;2090642;28;19924;-49
2022/07/12 03:40:41;;;;;;;;;;;;;;;28.76;43.08;99000.97;2090966;28;20487;-51
2022/07/12 03:41:43;;;;;;;;;;;;;;;28.75;42.90;99000.13;2088885;28;19932;-52
2022/07/12 03:42:46;;;;;;;;;;;;;;;28.74;43.03;98996.59;2091183;28;19929;-54
2022/07/12 03:43:46;;;;;;;;;;;;;;;28.75;42.89;98997.41;2086152;28;19928;-51
2022/07/12 03:44:48;;;;;;;;;;;;;;;28.75;42.97;99000.13;2087304;28;20397;-50
2022/07/12 03:45:48;;;;;;;;;;;;;;;28.76;42.92;98998.25;2088641;28;20302;-53
2022/07/12 03:46:50;;;;;;;;;;;;;;;28.74;42.90;99004.78;2089027;28;19939;-52
2022/07/12 03:47:50;;;;;;;;;;;;;;;28.74;42.96;98996.59;2087985;28;19999;-52
2022/07/12 03:48:52;;;;;;;;;;;;;;;28.73;42.69;98997.69;2088251;28;20003;-51
2022/07/12 03:49:52;;;;;;;;;;;;;;;28.74;42.97;98999.31;2091274;28;19924;-52
2022/07/12 03:50:55;;;;;;;;;;;;;;;28.74;43.04;98998.50;2091691;28;20047;-53
2022/07/12 03:51:56;;;;;;;;;;;;;;;28.76;42.83;98998.25;2089312;28;20881;-49
2022/07/12 03:52:57;;;;;;;;;;;;;;;28.74;42.93;98993.84;2091618;28;19972;-54
2022/07/12 03:53:58;;;;;;;;;;;;;;;28.76;42.89;98998.25;2086824;28;19935;-51
2022/07/12 03:55:01;;;;;;;;;;;;;;;28.75;42.95;98994.69;2090423;28;19931;-51
2022/07/12 03:56:03;;;;;;;;;;;;;;;28.73;42.98;99002.31;2088561;28;19940;-51
2022/07/12 03:57:14;;;;;;;;;;;;;;;28.72;42.77;99001.50;2090215;28;19928;-50
2022/07/12 03:58:16;;;;;;;;;;;;;;;28.72;42.84;99006.97;2087787;28;20421;-50
2022/07/12 03:59:16;;;;;;;;;;;;;;;28.72;42.82;99006.13;2086769;28;19929;-53
2022/07/12 04:00:18;;;;;;;;;;;;;;;28.72;42.76;99008.84;2089220;28;20014;-50
2022/07/12 04:01:18;;;;;;;;;;;;;;;28.72;42.92;99006.97;2085865;28;19933;-50
2022/07/12 04:02:19;;;;;;;;;;;;;;;28.72;42.89;99017.88;2090374;28;20309;-51
2022/07/12 04:03:21;;;;;;;;;;;;;;;28.72;43.04;99012.44;2088006;28;19928;-53
2022/07/12 04:04:21;;;;;;;;;;;;;;;28.72;43.02;99017.88;2090065;28;19928;-53
2022/07/12 04:05:26;;;;;;;;;;;;;;;28.73;42.92;99024.16;2086609;28;20448;-51
2022/07/12 04:06:26;;;;;;;;;;;;;;;28.71;42.95;99016.22;2084851;28;19932;-53
2022/07/12 04:07:28;;;;;;;;;;;;;;;28.73;42.91;99013.25;2087342;28;20437;-54
2022/07/12 04:08:29;;;;;;;;;;;;;;;28.70;42.90;99021.97;2085739;28;19936;-51
2022/07/12 04:09:30;;;;;;;;;;;;;;;28.69;43.03;99018.38;2086713;28;19932;-52
2022/07/12 04:10:32;;;;;;;;;;;;;;;28.68;42.94;99016.75;2090063;28;20040;-52
2022/07/12 04:11:32;;;;;;;;;;;;;;;28.69;42.83;99012.91;2088165;28;19954;-53
2022/07/12 04:12:35;;;;;;;;;;;;;;;28.70;42.76;99013.78;2091281;28;19954;-51
2022/07/12 04:13:36;;;;;;;;;;;;;;;28.71;42.98;99005.31;2089809;28;20405;-55
2022/07/12 04:14:37;;;;;;;;;;;;;;;28.70;42.99;99008.31;2084967;28;19942;-50
2022/07/12 04:15:39;;;;;;;;;;;;;;;28.70;42.79;99000.94;2089782;28;19935;-52
2022/07/12 04:16:40;;;;;;;;;;;;;;;28.70;42.70;98997.41;2090794;28;19965;-53
2022/07/12 04:17:42;;;;;;;;;;;;;;;28.69;42.69;99007.47;2084955;28;20894;-51
2022/07/12 04:18:42;;;;;;;;;;;;;;;28.68;43.09;99014.03;2089032;28;19963;-51
2022/07/12 04:19:44;;;;;;;;;;;;;;;28.69;42.97;99009.38;2088079;28;19936;-58
2022/07/12 04:20:44;;;;;;;;;;;;;;;28.69;42.85;99017.56;2089485;28;19935;-56
2022/07/12 04:21:46;;;;;;;;;;;;;;;28.69;42.97;99023.03;2088903;28;19946;-55
2022/07/12 04:22:48;;;;;;;;;;;;;;;28.67;42.99;99020.56;2088267;28;20312;-54
2022/07/12 04:23:48;;;;;;;;;;;;;;;28.68;42.97;99033.13;2090264;28;19932;-55
2022/07/12 04:24:50;;;;;;;;;;;;;;;28.68;43.14;99033.13;2090305;28;20928;-54
2022/07/12 04:25:51;;;;;;;;;;;;;;;28.68;42.77;99033.13;2074385;28;19947;-57
2022/07/12 04:26:52;;;;;;;;;;;;;;;28.68;43.01;99035.03;2087628;28;19947;-55
2022/07/12 04:27:55;;;;;;;;;;;;;;;28.68;43.11;99037.75;2087457;28;20736;-56
2022/07/12 04:28:57;;;;;;;;;;;;;;;28.67;43.02;99036.13;2089585;28;20691;-56
2022/07/12 04:29:57;;;;;;;;;;;;;;;28.67;42.87;99041.59;2087187;28;19951;-54
2022/07/12 04:30:59;;;;;;;;;;;;;;;28.65;42.92;99041.84;2084810;28;20027;-54
2022/07/12 04:31:59;;;;;;;;;;;;;;;28.66;42.99;99031.72;2083709;28;19933;-56
2022/07/12 04:33:01;;;;;;;;;;;;;;;28.65;42.92;99039.09;2090820;28;20495;-54
2022/07/12 04:34:01;;;;;;;;;;;;;;;28.66;42.94;99035.28;2086367;28;20793;-54
2022/07/12 04:35:03;;;;;;;;;;;;;;;28.64;42.94;99029.28;2086756;28;19990;-56
2022/07/12 04:36:04;;;;;;;;;;;;;;;28.64;43.06;99034.75;2088970;28;19940;-52
2022/07/12 04:37:05;;;;;;;;;;;;;;;28.65;43.01;99028.19;2089541;28;19975;-53
2022/07/12 04:38:07;;;;;;;;;;;;;;;28.66;42.99;99032.56;2090364;28;19928;-52
2022/07/12 04:39:09;;;;;;;;;;;;;;;28.65;42.93;99028.19;2088714;28;20402;-53
2022/07/12 04:40:11;;;;;;;;;;;;;;;28.63;43.05;99026.81;2086781;28;19935;-54
2022/07/12 04:41:11;;;;;;;;;;;;;;;28.62;43.11;99028.72;2088707;28;20425;-55
2022/07/12 04:42:13;;;;;;;;;;;;;;;28.61;43.08;99027.06;2086425;28;19968;-55
2022/07/12 04:43:15;;;;;;;;;;;;;;;28.61;42.90;99027.06;2089359;28;19932;-54
2022/07/12 04:44:16;;;;;;;;;;;;;;;28.61;42.90;99029.81;2088574;28;19944;-54
2022/07/12 04:45:17;;;;;;;;;;;;;;;28.63;43.09;99024.06;2088433;28;19943;-55
2022/07/12 04:46:18;;;;;;;;;;;;;;;28.62;43.18;99023.25;2087815;28;19929;-55
2022/07/12 04:47:19;;;;;;;;;;;;;;;28.64;42.84;99021.09;2088195;28;19928;-56
2022/07/12 04:48:20;;;;;;;;;;;;;;;28.63;43.17;99021.34;2089250;28;19951;-54
2022/07/12 04:49:21;;;;;;;;;;;;;;;28.62;43.07;99023.25;2089111;28;19939;-56
2022/07/12 04:50:23;;;;;;;;;;;;;;;28.62;43.09;99031.44;2087043;28;20608;-54
2022/07/12 04:51:23;;;;;;;;;;;;;;;28.62;42.80;99022.44;2090113;28;19932;-55
2022/07/12 04:52:25;;;;;;;;;;;;;;;28.60;42.96;99021.88;2091527;28;20293;-52
2022/07/12 04:53:25;;;;;;;;;;;;;;;28.61;43.04;99021.63;2090443;28;19931;-56
2022/07/12 04:54:27;;;;;;;;;;;;;;;28.63;42.97;99015.88;2091141;28;20643;-53
2022/07/12 04:55:27;;;;;;;;;;;;;;;28.62;43.00;99017.78;2090974;28;19974;-56
2022/07/12 04:56:29;;;;;;;;;;;;;;;28.59;42.88;99018.31;2084551;28;19972;-57
2022/07/12 04:57:30;;;;;;;;;;;;;;;28.62;43.01;99012.34;2086390;28;19929;-55
2022/07/12 04:58:33;;;;;;;;;;;;;;;28.59;43.05;99012.88;2090540;28;20422;-54
2022/07/12 04:59:33;;;;;;;;;;;;;;;28.56;43.04;99010.66;2086110;28;20548;-54
2022/07/12 05:00:35;;;;;;;;;;;;;;;28.57;43.12;99020.47;2084958;28;19955;-53
2022/07/12 05:01:35;;;;;;;;;;;;;;;28.60;43.20;99024.59;2089677;28;19936;-52
2022/07/12 05:02:37;;;;;;;;;;;;;;;28.60;42.85;99025.41;2090703;28;20569;-51
2022/07/12 05:03:38;;;;;;;;;;;;;;;28.61;43.08;99027.06;2088214;28;19932;-54
2022/07/12 05:04:39;;;;;;;;;;;;;;;28.61;43.05;99029.81;2088584;28;19932;-55
2022/07/12 05:05:40;;;;;;;;;;;;;;;28.59;43.14;99025.69;2087214;28;19933;-50
2022/07/12 05:06:41;;;;;;;;;;;;;;;28.57;43.03;99028.66;2087827;28;20584;-56
2022/07/12 05:07:42;;;;;;;;;;;;;;;28.57;43.14;99031.41;2088537;28;19929;-52
2022/07/12 05:08:43;;;;;;;;;;;;;;;28.56;42.92;99032.50;2089933;28;19928;-54
2022/07/12 05:09:44;;;;;;;;;;;;;;;28.57;43.12;99027.84;2087874;28;23728;-49
2022/07/12 05:10:45;;;;;;;;;;;;;;;28.59;43.11;99031.16;2090143;28;19925;-54
2022/07/12 05:11:46;;;;;;;;;;;;;;;28.56;43.11;99024.31;2085490;28;19932;-57
2022/07/12 05:12:48;;;;;;;;;;;;;;;28.56;43.00;99024.31;2090474;28;20015;-54
2022/07/12 05:13:50;;;;;;;;;;;;;;;28.54;43.20;99026.47;2084640;28;19928;-52
2022/07/12 05:14:51;;;;;;;;;;;;;;;28.55;43.13;99025.38;2087709;28;19979;-54
2022/07/12 05:15:52;;;;;;;;;;;;;;;28.54;43.24;99021.00;2088930;28;19951;-52
2022/07/12 05:16:54;;;;;;;;;;;;;;;28.55;43.15;99030.00;2090060;28;20335;-53
2022/07/12 05:17:54;;;;;;;;;;;;;;;28.56;43.19;99021.56;2088887;28;19929;-56
2022/07/12 05:18:56;;;;;;;;;;;;;;;28.59;43.06;99025.69;2089104;28;19929;-54
2022/07/12 05:19:56;;;;;;;;;;;;;;;28.57;43.03;99023.22;2089160;28;20723;-54
2022/07/12 05:20:58;;;;;;;;;;;;;;;28.56;43.09;99018.84;2088275;28;20051;-54
2022/07/12 05:22:00;;;;;;;;;;;;;;;28.56;43.27;99016.13;2084151;28;19944;-55